Impacts TAF Board INFO
FOR SITUATIONAL AWARENESS. NOT TO BE USED FOR FLIGHT PLANNING PURPOSES.
IDs:

KSTL - St Louis/Lambert Int, MO, US

Issued at 2331 UTC 26 May 2017
Updated at 0034 UTC 27 May 2017
Potential Impact None Slight Moderate High
Time2351Z 27/01Z 27/02Z 27/03Z 27/04Z 27/05Z 27/06Z 27/07Z 27/08Z 27/09Z 27/10Z 27/11Z 27/12Z 27/13Z>>
Type OBS PRVL PRVL PRVL PRVL PRVL PRVL PRVL PRVL PRVL PRVL PRVL PRVL PRVL
VIS 10 >6 >6 >6 >6 >6 >6 >6 >6 >6 4 4 4 4
CIG 80 40 40 40 40 40 40 40 40 40 15 15 15 15
Cover BKN OVC OVC OVC OVC OVC OVC OVC OVC OVC BKN BKN BKN BKN
FltCat VFR VFR VFR VFR VFR VFR VFR VFR VFR VFR MVFR MVFR MVFR MVFR
WX -- -- -- -- -- -- -- -- -- -- BR BR BR BR
WDir 210 230 230 230 230 230 230 230 230 230 VRB VRB VRB VRB
WSpd 10 7 7 7 7 7 7 7 7 7 3 3 3 3
WGst -- -- -- -- -- -- -- -- -- -- -- -- -- --

Raw TAF
KSTL 262331Z 2700/2806 23007KT P6SM OVC040
  FM271000 VRB03KT 4SM BR BKN015
  FM271500 13007KT P6SM SCT040
  FM280000 14007KT P6SM BKN040
  TEMPO 2800/2804 2SM TSRA BKN035CB


Raw METAR
KSTL 262351Z 21010KT 10SM SCT050 BKN080 27/19 A2976 RMK AO2 SLP069 T02720194 10306 20267 51008
KSTL 262251Z 21010KT 10SM BKN043 OVC080 27/19 A2976 RMK AO2 SLP068 T02720189
KSTL 262151Z 20012KT 10SM SCT040 OVC065 27/19 A2975 RMK AO2 SLP065 T02670189

METAR Board
Radar Display
Forecast Discussion

FOR SITUATIONAL AWARENESS. NOT TO BE USED FOR FLIGHT PLANNING PURPOSES.

Page loaded:  00:34 UTC  |   05:34 PM Pacific  |   06:34 PM Mountain  |   07:34 PM Central  |   08:34 PM Eastern

 

ADVISORIES

FORECASTS

FORECASTS

OBSERVATIONS

USER TOOLS

ABOUT US